sensor_id;sensor_type;location;lat;lon;timestamp;pressure;altitude;pressure_sealevel;temperature;humidity
49342;BME280;35210;41.606;-87.602;2023-01-30T00:01:49;100532.38;;;0.80;70.25
49342;BME280;35210;41.606;-87.602;2023-01-30T00:04:17;100534.22;;;0.75;70.77
49342;BME280;35210;41.606;-87.602;2023-01-30T00:06:47;100535.03;;;0.77;70.22
49342;BME280;35210;41.606;-87.602;2023-01-30T00:09:15;100534.38;;;0.67;70.86
49342;BME280;35210;41.606;-87.602;2023-01-30T00:11:43;100538.72;;;0.67;71.30
49342;BME280;35210;41.606;-87.602;2023-01-30T00:14:12;100547.28;;;0.72;70.27
49342;BME280;35210;41.606;-87.602;2023-01-30T00:16:41;100539.41;;;0.75;70.13
49342;BME280;35210;41.606;-87.602;2023-01-30T00:19:09;100543.78;;;0.74;70.25
49342;BME280;35210;41.606;-87.602;2023-01-30T00:21:37;100562.03;;;0.71;70.32
49342;BME280;35210;41.606;-87.602;2023-01-30T00:24:07;100566.16;;;0.80;68.95
49342;BME280;35210;41.606;-87.602;2023-01-30T00:26:36;100566.50;;;0.64;68.85
49342;BME280;35210;41.606;-87.602;2023-01-30T00:29:04;100563.88;;;0.64;69.61
49342;BME280;35210;41.606;-87.602;2023-01-30T00:31:33;100581.09;;;0.72;68.98
49342;BME280;35210;41.606;-87.602;2023-01-30T00:34:01;100585.41;;;0.73;68.94
49342;BME280;35210;41.606;-87.602;2023-01-30T00:36:29;100578.53;;;0.69;68.78
49342;BME280;35210;41.606;-87.602;2023-01-30T00:38:57;100576.63;;;0.77;69.11
49342;BME280;35210;41.606;-87.602;2023-01-30T00:41:28;100564.47;;;0.79;69.38
49342;BME280;35210;41.606;-87.602;2023-01-30T00:44:16;100545.13;;;0.92;67.80
49342;BME280;35210;41.606;-87.602;2023-01-30T00:47:03;100553.94;;;0.85;67.82
49342;BME280;35210;41.606;-87.602;2023-01-30T00:49:32;100549.56;;;0.87;67.89
49342;BME280;35210;41.606;-87.602;2023-01-30T00:52:01;100564.28;;;0.88;67.88
49342;BME280;35210;41.606;-87.602;2023-01-30T00:54:30;100565.81;;;0.98;67.20
49342;BME280;35210;41.606;-87.602;2023-01-30T00:57:00;100567.72;;;0.90;67.55
49342;BME280;35210;41.606;-87.602;2023-01-30T00:59:28;100571.97;;;0.94;67.59
49342;BME280;35210;41.606;-87.602;2023-01-30T01:01:57;100575.50;;;0.90;67.44
49342;BME280;35210;41.606;-87.602;2023-01-30T01:04:26;100560.84;;;0.86;67.74
49342;BME280;35210;41.606;-87.602;2023-01-30T01:06:54;100565.94;;;0.92;68.11
49342;BME280;35210;41.606;-87.602;2023-01-30T01:09:23;100554.72;;;0.90;66.43
49342;BME280;35210;41.606;-87.602;2023-01-30T01:11:51;100559.13;;;0.85;67.32
49342;BME280;35210;41.606;-87.602;2023-01-30T01:14:21;100552.28;;;0.81;67.08
49342;BME280;35210;41.606;-87.602;2023-01-30T01:16:50;100542.63;;;0.87;66.99
49342;BME280;35210;41.606;-87.602;2023-01-30T01:19:18;100534.84;;;0.86;67.41
49342;BME280;35210;41.606;-87.602;2023-01-30T01:21:46;100522.56;;;0.94;66.39
49342;BME280;35210;41.606;-87.602;2023-01-30T01:24:15;100514.88;;;0.88;66.67
49342;BME280;35210;41.606;-87.602;2023-01-30T01:26:44;100524.50;;;0.83;67.07
49342;BME280;35210;41.606;-87.602;2023-01-30T01:29:14;100515.78;;;0.85;67.25
49342;BME280;35210;41.606;-87.602;2023-01-30T01:31:44;100503.66;;;0.86;67.47
49342;BME280;35210;41.606;-87.602;2023-01-30T01:34:12;100504.44;;;0.89;65.67
49342;BME280;35210;41.606;-87.602;2023-01-30T01:36:40;100499.41;;;0.82;66.41
49342;BME280;35210;41.606;-87.602;2023-01-30T01:39:08;100498.50;;;0.83;66.86
49342;BME280;35210;41.606;-87.602;2023-01-30T01:41:36;100500.34;;;0.78;67.04
49342;BME280;35210;41.606;-87.602;2023-01-30T01:44:05;100503.78;;;0.80;65.37
49342;BME280;35210;41.606;-87.602;2023-01-30T01:46:36;100504.72;;;0.76;65.66
49342;BME280;35210;41.606;-87.602;2023-01-30T01:49:12;100509.31;;;0.64;66.10
49342;BME280;35210;41.606;-87.602;2023-01-30T01:51:48;100507.59;;;0.63;66.79
49342;BME280;35210;41.606;-87.602;2023-01-30T01:54:25;100507.78;;;0.54;66.74
49342;BME280;35210;41.606;-87.602;2023-01-30T01:56:56;100511.13;;;0.59;67.50
49342;BME280;35210;41.606;-87.602;2023-01-30T01:59:26;100506.00;;;0.56;67.08
49342;BME280;35210;41.606;-87.602;2023-01-30T02:02:00;100503.28;;;0.62;67.23
49342;BME280;35210;41.606;-87.602;2023-01-30T02:04:33;100498.03;;;0.65;66.35
49342;BME280;35210;41.606;-87.602;2023-01-30T02:07:19;100489.44;;;0.62;66.57
49342;BME280;35210;41.606;-87.602;2023-01-30T02:09:49;100486.81;;;0.63;66.18
49342;BME280;35210;41.606;-87.602;2023-01-30T02:12:17;100478.81;;;0.73;65.01
49342;BME280;35210;41.606;-87.602;2023-01-30T02:14:47;100475.50;;;0.64;64.60
49342;BME280;35210;41.606;-87.602;2023-01-30T02:17:16;100474.88;;;0.53;65.65
49342;BME280;35210;41.606;-87.602;2023-01-30T02:19:49;100482.75;;;0.49;64.79
49342;BME280;35210;41.606;-87.602;2023-01-30T02:26:05;100477.88;;;0.32;65.32
49342;BME280;35210;41.606;-87.602;2023-01-30T02:28:51;100473.78;;;0.19;66.26
49342;BME280;35210;41.606;-87.602;2023-01-30T02:31:35;100482.47;;;0.18;66.49
49342;BME280;35210;41.606;-87.602;2023-01-30T02:34:20;100479.94;;;0.13;66.84
49342;BME280;35210;41.606;-87.602;2023-01-30T02:37:00;100479.19;;;0.07;66.46
49342;BME280;35210;41.606;-87.602;2023-01-30T02:39:37;100478.41;;;0.02;67.21
49342;BME280;35210;41.606;-87.602;2023-01-30T02:42:19;100480.31;;;-0.07;66.96
49342;BME280;35210;41.606;-87.602;2023-01-30T02:44:58;100480.41;;;-0.11;66.82
49342;BME280;35210;41.606;-87.602;2023-01-30T02:47:35;100481.28;;;-0.12;67.68
49342;BME280;35210;41.606;-87.602;2023-01-30T02:50:09;100477.72;;;-0.07;68.10
49342;BME280;35210;41.606;-87.602;2023-01-30T02:52:40;100477.53;;;0.03;68.08
49342;BME280;35210;41.606;-87.602;2023-01-30T02:55:17;100490.63;;;-0.02;67.84
49342;BME280;35210;41.606;-87.602;2023-01-30T02:57:45;100500.19;;;-0.04;67.92
49342;BME280;35210;41.606;-87.602;2023-01-30T03:00:16;100513.97;;;-0.01;68.57
49342;BME280;35210;41.606;-87.602;2023-01-30T03:03:16;100514.72;;;0.05;67.67
49342;BME280;35210;41.606;-87.602;2023-01-30T03:06:11;100519.72;;;0.17;66.74
49342;BME280;35210;41.606;-87.602;2023-01-30T03:08:48;100521.41;;;0.19;66.80
49342;BME280;35210;41.606;-87.602;2023-01-30T03:11:25;100532.69;;;0.17;67.04
49342;BME280;35210;41.606;-87.602;2023-01-30T03:14:03;100542.16;;;0.21;66.69
49342;BME280;35210;41.606;-87.602;2023-01-30T03:16:37;100555.84;;;0.30;67.14
49342;BME280;35210;41.606;-87.602;2023-01-30T03:19:10;100553.16;;;0.35;67.37
49342;BME280;35210;41.606;-87.602;2023-01-30T03:21:42;100554.78;;;0.42;67.29
49342;BME280;35210;41.606;-87.602;2023-01-30T03:24:12;100561.56;;;0.49;67.84
49342;BME280;35210;41.606;-87.602;2023-01-30T03:26:44;100555.31;;;0.59;67.30
49342;BME280;35210;41.606;-87.602;2023-01-30T03:29:13;100558.78;;;0.60;66.32
49342;BME280;35210;41.606;-87.602;2023-01-30T03:31:43;100548.38;;;0.60;65.78
49342;BME280;35210;41.606;-87.602;2023-01-30T03:34:12;100548.28;;;0.64;65.64
49342;BME280;35210;41.606;-87.602;2023-01-30T03:36:40;100551.78;;;0.63;65.15
49342;BME280;35210;41.606;-87.602;2023-01-30T03:39:09;100551.72;;;0.67;65.79
49342;BME280;35210;41.606;-87.602;2023-01-30T03:41:37;100535.31;;;0.64;65.43
49342;BME280;35210;41.606;-87.602;2023-01-30T03:44:05;100533.53;;;0.67;65.61
49342;BME280;35210;41.606;-87.602;2023-01-30T03:46:33;100523.91;;;0.72;65.40
49342;BME280;35210;41.606;-87.602;2023-01-30T03:49:01;100513.56;;;0.69;63.99
49342;BME280;35210;41.606;-87.602;2023-01-30T03:51:31;100505.94;;;0.59;64.30
49342;BME280;35210;41.606;-87.602;2023-01-30T03:53:59;100505.81;;;0.65;65.08
49342;BME280;35210;41.606;-87.602;2023-01-30T03:56:27;100495.59;;;0.56;64.59
49342;BME280;35210;41.606;-87.602;2023-01-30T03:58:56;100499.09;;;0.55;65.46
49342;BME280;35210;41.606;-87.602;2023-01-30T04:01:25;100494.72;;;0.57;64.95
49342;BME280;35210;41.606;-87.602;2023-01-30T04:03:53;100495.72;;;0.50;64.64
49342;BME280;35210;41.606;-87.602;2023-01-30T04:06:22;100497.63;;;0.41;65.50
49342;BME280;35210;41.606;-87.602;2023-01-30T04:08:53;100500.25;;;0.39;65.54
49342;BME280;35210;41.606;-87.602;2023-01-30T04:11:21;100506.44;;;0.32;65.45
49342;BME280;35210;41.606;-87.602;2023-01-30T04:13:50;100498.13;;;0.13;65.84
49342;BME280;35210;41.606;-87.602;2023-01-30T04:16:19;100502.59;;;0.05;67.01
49342;BME280;35210;41.606;-87.602;2023-01-30T04:18:49;100506.22;;;-0.04;66.78
49342;BME280;35210;41.606;-87.602;2023-01-30T04:21:17;100519.38;;;-0.13;67.46
49342;BME280;35210;41.606;-87.602;2023-01-30T04:23:45;100505.44;;;-0.09;67.62
49342;BME280;35210;41.606;-87.602;2023-01-30T04:26:16;100505.69;;;-0.24;67.86
49342;BME280;35210;41.606;-87.602;2023-01-30T04:28:44;100497.22;;;-0.35;69.10
49342;BME280;35210;41.606;-87.602;2023-01-30T04:31:13;100500.69;;;-0.36;68.18
49342;BME280;35210;41.606;-87.602;2023-01-30T04:33:41;100509.47;;;-0.43;68.75
49342;BME280;35210;41.606;-87.602;2023-01-30T04:36:10;100523.31;;;-0.44;69.08
49342;BME280;35210;41.606;-87.602;2023-01-30T04:38:39;100530.31;;;-0.49;70.57
49342;BME280;35210;41.606;-87.602;2023-01-30T04:41:07;100535.50;;;-0.49;70.71
49342;BME280;35210;41.606;-87.602;2023-01-30T04:43:37;100538.09;;;-0.49;70.58
49342;BME280;35210;41.606;-87.602;2023-01-30T04:46:05;100542.41;;;-0.48;70.30
49342;BME280;35210;41.606;-87.602;2023-01-30T04:48:34;100538.91;;;-0.46;69.82
49342;BME280;35210;41.606;-87.602;2023-01-30T04:51:02;100555.41;;;-0.51;68.12
49342;BME280;35210;41.606;-87.602;2023-01-30T04:53:30;100552.09;;;-0.62;68.61
49342;BME280;35210;41.606;-87.602;2023-01-30T04:55:58;100559.06;;;-0.64;68.40
49342;BME280;35210;41.606;-87.602;2023-01-30T04:58:27;100559.31;;;-0.81;68.66
49342;BME280;35210;41.606;-87.602;2023-01-30T05:01:11;100560.19;;;-0.84;68.87
49342;BME280;35210;41.606;-87.602;2023-01-30T05:03:40;100561.94;;;-0.86;69.66
49342;BME280;35210;41.606;-87.602;2023-01-30T05:06:08;100560.22;;;-0.87;69.82
49342;BME280;35210;41.606;-87.602;2023-01-30T05:08:36;100554.13;;;-0.83;69.07
49342;BME280;35210;41.606;-87.602;2023-01-30T05:11:04;100558.44;;;-0.82;68.02
49342;BME280;35210;41.606;-87.602;2023-01-30T05:13:33;100556.94;;;-1.00;68.48
49342;BME280;35210;41.606;-87.602;2023-01-30T05:16:03;100562.91;;;-0.93;68.07
49342;BME280;35210;41.606;-87.602;2023-01-30T05:18:32;100554.34;;;-1.00;68.15
49342;BME280;35210;41.606;-87.602;2023-01-30T05:21:06;100549.19;;;-1.01;67.91
49342;BME280;35210;41.606;-87.602;2023-01-30T05:23:34;100544.88;;;-1.02;68.47
49342;BME280;35210;41.606;-87.602;2023-01-30T05:26:03;100548.34;;;-1.05;67.79
49342;BME280;35210;41.606;-87.602;2023-01-30T05:28:31;100543.25;;;-1.12;67.18
49342;BME280;35210;41.606;-87.602;2023-01-30T05:31:02;100541.66;;;-1.22;68.07
49342;BME280;35210;41.606;-87.602;2023-01-30T05:33:32;100544.25;;;-1.24;67.60
49342;BME280;35210;41.606;-87.602;2023-01-30T05:36:00;100538.25;;;-1.27;68.53
49342;BME280;35210;41.606;-87.602;2023-01-30T05:38:29;100535.75;;;-1.35;68.57
49342;BME280;35210;41.606;-87.602;2023-01-30T05:40:58;100539.25;;;-1.41;69.33
49342;BME280;35210;41.606;-87.602;2023-01-30T05:43:28;100538.41;;;-1.43;70.03
49342;BME280;35210;41.606;-87.602;2023-01-30T05:45:57;100535.00;;;-1.48;69.71
49342;BME280;35210;41.606;-87.602;2023-01-30T05:48:28;100526.38;;;-1.47;70.20
49342;BME280;35210;41.606;-87.602;2023-01-30T05:50:58;100537.59;;;-1.46;69.90
49342;BME280;35210;41.606;-87.602;2023-01-30T05:53:27;100528.06;;;-1.44;70.82
49342;BME280;35210;41.606;-87.602;2023-01-30T05:55:57;100528.91;;;-1.41;70.34
49342;BME280;35210;41.606;-87.602;2023-01-30T05:58:27;100534.84;;;-1.33;69.77
49342;BME280;35210;41.606;-87.602;2023-01-30T06:01:00;100534.84;;;-1.33;68.52
49342;BME280;35210;41.606;-87.602;2023-01-30T06:03:31;100530.56;;;-1.35;69.58
49342;BME280;35210;41.606;-87.602;2023-01-30T06:06:01;100527.91;;;-1.30;70.61
49342;BME280;35210;41.606;-87.602;2023-01-30T06:08:30;100525.25;;;-1.23;70.24
49342;BME280;35210;41.606;-87.602;2023-01-30T06:10:59;100526.00;;;-1.13;69.23
49342;BME280;35210;41.606;-87.602;2023-01-30T06:13:28;100513.09;;;-1.19;69.78
49342;BME280;35210;41.606;-87.602;2023-01-30T06:15:56;100522.63;;;-1.21;70.34
49342;BME280;35210;41.606;-87.602;2023-01-30T06:18:24;100514.88;;;-1.23;70.42
49342;BME280;35210;41.606;-87.602;2023-01-30T06:20:54;100506.16;;;-1.17;70.23
49342;BME280;35210;41.606;-87.602;2023-01-30T06:23:22;100504.44;;;-1.17;68.63
49342;BME280;35210;41.606;-87.602;2023-01-30T06:25:51;100513.09;;;-1.19;69.63
49342;BME280;35210;41.606;-87.602;2023-01-30T06:28:22;100522.75;;;-1.32;69.88
49342;BME280;35210;41.606;-87.602;2023-01-30T06:30:51;100519.31;;;-1.33;70.12
49342;BME280;35210;41.606;-87.602;2023-01-30T06:33:20;100516.75;;;-1.37;69.04
49342;BME280;35210;41.606;-87.602;2023-01-30T06:35:49;100526.31;;;-1.42;67.79
49342;BME280;35210;41.606;-87.602;2023-01-30T06:38:19;100523.03;;;-1.55;67.03
49342;BME280;35210;41.606;-87.602;2023-01-30T06:40:49;100527.41;;;-1.60;66.78
49342;BME280;35210;41.606;-87.602;2023-01-30T06:43:17;100520.59;;;-1.72;66.03
49342;BME280;35210;41.606;-87.602;2023-01-30T06:45:46;100513.84;;;-1.86;67.82
49342;BME280;35210;41.606;-87.602;2023-01-30T06:48:15;100525.88;;;-1.82;67.88
49342;BME280;35210;41.606;-87.602;2023-01-30T06:50:45;100526.78;;;-1.86;68.49
49342;BME280;35210;41.606;-87.602;2023-01-30T06:53:14;100519.88;;;-1.84;68.24
49342;BME280;35210;41.606;-87.602;2023-01-30T06:55:44;100509.50;;;-1.84;68.06
49342;BME280;35210;41.606;-87.602;2023-01-30T06:58:13;100506.13;;;-1.92;67.37
49342;BME280;35210;41.606;-87.602;2023-01-30T07:00:42;100514.78;;;-1.93;67.19
49342;BME280;35210;41.606;-87.602;2023-01-30T07:03:11;100518.31;;;-2.04;68.24
49342;BME280;35210;41.606;-87.602;2023-01-30T07:05:40;100511.41;;;-2.02;68.15
49342;BME280;35210;41.606;-87.602;2023-01-30T07:08:08;100519.97;;;-1.96;68.48
49342;BME280;35210;41.606;-87.602;2023-01-30T07:10:37;100511.41;;;-2.02;67.52
49342;BME280;35210;41.606;-87.602;2023-01-30T07:13:07;100519.97;;;-1.96;66.73
49342;BME280;35210;41.606;-87.602;2023-01-30T07:15:35;100516.66;;;-2.11;66.85
49342;BME280;35210;41.606;-87.602;2023-01-30T07:18:03;100512.38;;;-2.16;68.08
49342;BME280;35210;41.606;-87.602;2023-01-30T07:20:31;100518.50;;;-2.25;67.89
49342;BME280;35210;41.606;-87.602;2023-01-30T07:22:59;100518.53;;;-2.26;68.11
49342;BME280;35210;41.606;-87.602;2023-01-30T07:25:28;100511.63;;;-2.26;68.56
49342;BME280;35210;41.606;-87.602;2023-01-30T07:27:58;100511.53;;;-2.20;68.04
49342;BME280;35210;41.606;-87.602;2023-01-30T07:30:30;100514.97;;;-2.18;67.33
49342;BME280;35210;41.606;-87.602;2023-01-30T07:32:59;100516.84;;;-2.32;66.82
49342;BME280;35210;41.606;-87.602;2023-01-30T07:35:28;100527.19;;;-2.32;66.96
49342;BME280;35210;41.606;-87.602;2023-01-30T07:37:57;100527.19;;;-2.34;67.37
49342;BME280;35210;41.606;-87.602;2023-01-30T07:40:26;100516.88;;;-2.38;67.22
49342;BME280;35210;41.606;-87.602;2023-01-30T07:42:58;100515.19;;;-2.41;68.15
49342;BME280;35210;41.606;-87.602;2023-01-30T07:45:30;100522.09;;;-2.41;68.15
49342;BME280;35210;41.606;-87.602;2023-01-30T07:48:01;100522.09;;;-2.44;68.36
49342;BME280;35210;41.606;-87.602;2023-01-30T07:50:29;100530.69;;;-2.39;67.82
49342;BME280;35210;41.606;-87.602;2023-01-30T07:52:57;100534.13;;;-2.37;67.21
49342;BME280;35210;41.606;-87.602;2023-01-30T07:55:26;100543.66;;;-2.47;67.05
49342;BME280;35210;41.606;-87.602;2023-01-30T07:57:54;100552.31;;;-2.52;68.02
49342;BME280;35210;41.606;-87.602;2023-01-30T08:00:22;100552.31;;;-2.51;68.68
49342;BME280;35210;41.606;-87.602;2023-01-30T08:02:52;100547.03;;;-2.36;68.13
49342;BME280;35210;41.606;-87.602;2023-01-30T08:05:20;100566.88;;;-2.33;68.01
49342;BME280;35210;41.606;-87.602;2023-01-30T08:07:49;100566.91;;;-2.39;67.43
49342;BME280;35210;41.606;-87.602;2023-01-30T08:10:18;100566.06;;;-2.44;66.31
49342;BME280;35210;41.606;-87.602;2023-01-30T08:12:46;100563.53;;;-2.50;66.10
49342;BME280;35210;41.606;-87.602;2023-01-30T08:15:16;100573.00;;;-2.48;64.82
49342;BME280;35210;41.606;-87.602;2023-01-30T08:17:44;100576.41;;;-2.46;65.19
49342;BME280;35210;41.606;-87.602;2023-01-30T08:20:21;100573.84;;;-2.49;64.41
49342;BME280;35210;41.606;-87.602;2023-01-30T08:22:49;100579.16;;;-2.72;65.17
49342;BME280;35210;41.606;-87.602;2023-01-30T08:25:18;100585.19;;;-2.71;66.52
49342;BME280;35210;41.606;-87.602;2023-01-30T08:27:46;100590.34;;;-2.70;66.41
49342;BME280;35210;41.606;-87.602;2023-01-30T08:30:15;100575.69;;;-2.68;66.81
49342;BME280;35210;41.606;-87.602;2023-01-30T08:32:43;100578.25;;;-2.65;66.47
49342;BME280;35210;41.606;-87.602;2023-01-30T08:35:11;100578.25;;;-2.66;65.22
49342;BME280;35210;41.606;-87.602;2023-01-30T08:37:42;100577.44;;;-2.74;65.43
49342;BME280;35210;41.606;-87.602;2023-01-30T08:40:11;100586.97;;;-2.88;65.63
49342;BME280;35210;41.606;-87.602;2023-01-30T08:42:39;100589.56;;;-2.90;65.29
49342;BME280;35210;41.606;-87.602;2023-01-30T08:45:08;100589.66;;;-3.08;65.06
49342;BME280;35210;41.606;-87.602;2023-01-30T08:47:36;100592.22;;;-2.99;65.56
49342;BME280;35210;41.606;-87.602;2023-01-30T08:50:04;100589.69;;;-3.14;65.80
49342;BME280;35210;41.606;-87.602;2023-01-30T08:52:32;100595.72;;;-3.20;65.31
49342;BME280;35210;41.606;-87.602;2023-01-30T08:55:02;100602.63;;;-3.25;65.53
49342;BME280;35210;41.606;-87.602;2023-01-30T08:57:31;100607.78;;;-3.26;66.40
49342;BME280;35210;41.606;-87.602;2023-01-30T08:59:59;100602.63;;;-3.23;66.23
49342;BME280;35210;41.606;-87.602;2023-01-30T09:02:28;100604.34;;;-3.21;66.53
49342;BME280;35210;41.606;-87.602;2023-01-30T09:04:56;100612.06;;;-3.19;66.56
49342;BME280;35210;41.606;-87.602;2023-01-30T09:07:24;100614.66;;;-3.24;66.71
49342;BME280;35210;41.606;-87.602;2023-01-30T09:09:53;100615.50;;;-3.16;67.25
49342;BME280;35210;41.606;-87.602;2023-01-30T09:12:23;100618.06;;;-3.08;66.30
49342;BME280;35210;41.606;-87.602;2023-01-30T09:14:52;100615.50;;;-3.11;65.82
49342;BME280;35210;41.606;-87.602;2023-01-30T09:17:23;100618.09;;;-3.13;64.66
49342;BME280;35210;41.606;-87.602;2023-01-30T09:19:51;100622.41;;;-3.13;65.70
49342;BME280;35210;41.606;-87.602;2023-01-30T09:22:21;100621.56;;;-3.20;65.92
49342;BME280;35210;41.606;-87.602;2023-01-30T09:24:50;100624.13;;;-3.12;66.40
49342;BME280;35210;41.606;-87.602;2023-01-30T09:27:18;100630.16;;;-3.12;63.68
49342;BME280;35210;41.606;-87.602;2023-01-30T09:29:48;100626.69;;;-3.14;64.30
49342;BME280;35210;41.606;-87.602;2023-01-30T09:32:17;100631.88;;;-3.20;62.17
49342;BME280;35210;41.606;-87.602;2023-01-30T09:34:45;100640.53;;;-3.44;62.33
49342;BME280;35210;41.606;-87.602;2023-01-30T09:37:14;100632.78;;;-3.47;63.42
49342;BME280;35210;41.606;-87.602;2023-01-30T09:39:42;100637.94;;;-3.53;63.64
49342;BME280;35210;41.606;-87.602;2023-01-30T09:42:26;100636.22;;;-3.69;63.54
49342;BME280;35210;41.606;-87.602;2023-01-30T09:45:18;100632.81;;;-3.83;63.67
49342;BME280;35210;41.606;-87.602;2023-01-30T09:47:59;100622.50;;;-3.86;64.57
49342;BME280;35210;41.606;-87.602;2023-01-30T09:50:44;100616.47;;;-3.94;64.71
49342;BME280;35210;41.606;-87.602;2023-01-30T09:53:17;100631.94;;;-4.07;65.21
49342;BME280;35210;41.606;-87.602;2023-01-30T09:55:51;100630.22;;;-4.06;65.45
49342;BME280;35210;41.606;-87.602;2023-01-30T09:58:21;100626.78;;;-4.10;65.70
49342;BME280;35210;41.606;-87.602;2023-01-30T10:00:58;100632.78;;;-4.14;65.58
49342;BME280;35210;41.606;-87.602;2023-01-30T10:03:35;100643.94;;;-4.18;65.54
49342;BME280;35210;41.606;-87.602;2023-01-30T10:06:11;100641.38;;;-4.15;66.09
49342;BME280;35210;41.606;-87.602;2023-01-30T10:08:49;100643.97;;;-4.09;66.34
49342;BME280;35210;41.606;-87.602;2023-01-30T10:11:36;100648.28;;;-4.02;65.92
49342;BME280;35210;41.606;-87.602;2023-01-30T10:14:19;100646.56;;;-3.97;64.63
49342;BME280;35210;41.606;-87.602;2023-01-30T10:17:02;100641.41;;;-4.00;64.56
49342;BME280;35210;41.606;-87.602;2023-01-30T10:19:54;100644.00;;;-3.97;64.04
49342;BME280;35210;41.606;-87.602;2023-01-30T10:22:38;100645.72;;;-3.94;63.80
49342;BME280;35210;41.606;-87.602;2023-01-30T10:25:21;100648.28;;;-3.99;64.28
49342;BME280;35210;41.606;-87.602;2023-01-30T10:27:55;100653.47;;;-3.92;64.79
49342;BME280;35210;41.606;-87.602;2023-01-30T10:30:25;100660.34;;;-3.93;64.45
49342;BME280;35210;41.606;-87.602;2023-01-30T10:32:57;100652.59;;;-3.93;65.06
49342;BME280;35210;41.606;-87.602;2023-01-30T10:35:33;100655.19;;;-3.87;64.54
49342;BME280;35210;41.606;-87.602;2023-01-30T10:38:11;100663.78;;;-3.92;64.10
49342;BME280;35210;41.606;-87.602;2023-01-30T10:40:46;100669.78;;;-4.03;64.87
49342;BME280;35210;41.606;-87.602;2023-01-30T10:43:23;100662.91;;;-4.04;65.08
49342;BME280;35210;41.606;-87.602;2023-01-30T10:46:01;100665.47;;;-4.10;65.65
49342;BME280;35210;41.606;-87.602;2023-01-30T10:48:55;100667.19;;;-4.01;66.09
49342;BME280;35210;41.606;-87.602;2023-01-30T10:51:37;100673.22;;;-4.05;65.88
49342;BME280;35210;41.606;-87.602;2023-01-30T10:54:14;100674.94;;;-4.07;66.33
49342;BME280;35210;41.606;-87.602;2023-01-30T10:56:50;100676.66;;;-4.02;66.90
49342;BME280;35210;41.606;-87.602;2023-01-30T10:59:23;100677.53;;;-4.00;65.73
49342;BME280;35210;41.606;-87.602;2023-01-30T11:02:01;100672.34;;;-4.13;65.53
49342;BME280;35210;41.606;-87.602;2023-01-30T11:04:41;100673.19;;;-4.11;65.91
49342;BME280;35210;41.606;-87.602;2023-01-30T11:07:11;100668.03;;;-4.11;65.88
49342;BME280;35210;41.606;-87.602;2023-01-30T11:09:42;100680.94;;;-4.13;64.50
49342;BME280;35210;41.606;-87.602;2023-01-30T11:12:11;100670.63;;;-4.10;64.19
49342;BME280;35210;41.606;-87.602;2023-01-30T11:14:53;100679.22;;;-4.08;63.71
49342;BME280;35210;41.606;-87.602;2023-01-30T11:17:35;100682.66;;;-4.12;62.25
49342;BME280;35210;41.606;-87.602;2023-01-30T11:20:10;100678.34;;;-4.19;60.63
49342;BME280;35210;41.606;-87.602;2023-01-30T11:22:45;100687.78;;;-4.24;60.25
49342;BME280;35210;41.606;-87.602;2023-01-30T11:25:17;100690.34;;;-4.25;58.83
49342;BME280;35210;41.606;-87.602;2023-01-30T11:27:52;100683.44;;;-4.37;58.90
49342;BME280;35210;41.606;-87.602;2023-01-30T11:30:26;100697.16;;;-4.52;58.97
49342;BME280;35210;41.606;-87.602;2023-01-30T11:33:05;100697.13;;;-4.58;59.35
49342;BME280;35210;41.606;-87.602;2023-01-30T11:35:51;100687.69;;;-4.57;59.70
49342;BME280;35210;41.606;-87.602;2023-01-30T11:38:22;100691.97;;;-4.59;60.79
49342;BME280;35210;41.606;-87.602;2023-01-30T11:41:03;100701.47;;;-4.49;59.81
49342;BME280;35210;41.606;-87.602;2023-01-30T11:43:32;100704.03;;;-4.52;59.58
49342;BME280;35210;41.606;-87.602;2023-01-30T11:46:05;100708.34;;;-4.44;59.78
49342;BME280;35210;41.606;-87.602;2023-01-30T11:48:42;100708.38;;;-4.33;59.69
49342;BME280;35210;41.606;-87.602;2023-01-30T11:51:14;100713.53;;;-4.33;59.26
49342;BME280;35210;41.606;-87.602;2023-01-30T11:53:44;100711.81;;;-4.34;58.98
49342;BME280;35210;41.606;-87.602;2023-01-30T11:56:18;100710.97;;;-4.33;57.84
49342;BME280;35210;41.606;-87.602;2023-01-30T11:58:54;100720.41;;;-4.34;57.47
49342;BME280;35210;41.606;-87.602;2023-01-30T12:01:26;100720.41;;;-4.34;56.68
49342;BME280;35210;41.606;-87.602;2023-01-30T12:03:56;100719.56;;;-4.26;55.47
49342;BME280;35210;41.606;-87.602;2023-01-30T12:06:31;100728.16;;;-4.29;55.08
49342;BME280;35210;41.606;-87.602;2023-01-30T12:09:00;100735.06;;;-4.19;54.61
49342;BME280;35210;41.606;-87.602;2023-01-30T12:11:39;100742.78;;;-4.25;53.03
49342;BME280;35210;41.606;-87.602;2023-01-30T12:14:38;100751.31;;;-4.41;53.29
49342;BME280;35210;41.606;-87.602;2023-01-30T12:17:13;100759.06;;;-4.46;52.93
49342;BME280;35210;41.606;-87.602;2023-01-30T12:19:56;100760.75;;;-4.48;53.55
49342;BME280;35210;41.606;-87.602;2023-01-30T12:22:32;100759.03;;;-4.43;52.45
49342;BME280;35210;41.606;-87.602;2023-01-30T12:25:12;100757.31;;;-4.48;52.16
49342;BME280;35210;41.606;-87.602;2023-01-30T12:27:54;100759.88;;;-4.51;50.86
49342;BME280;35210;41.606;-87.602;2023-01-30T12:30:31;100752.13;;;-4.56;50.63
49342;BME280;35210;41.606;-87.602;2023-01-30T12:33:03;100756.38;;;-4.63;50.12
49342;BME280;35210;41.606;-87.602;2023-01-30T12:35:46;100748.69;;;-4.56;48.32
49342;BME280;35210;41.606;-87.602;2023-01-30T12:38:29;100754.63;;;-4.68;48.93
49342;BME280;35210;41.606;-87.602;2023-01-30T12:41:17;100763.22;;;-4.72;50.40
49342;BME280;35210;41.606;-87.602;2023-01-30T12:44:02;100751.19;;;-4.69;50.31
49342;BME280;35210;41.606;-87.602;2023-01-30T12:46:51;100751.19;;;-4.69;50.01
49342;BME280;35210;41.606;-87.602;2023-01-30T12:49:48;100742.63;;;-4.66;50.17
49342;BME280;35210;41.606;-87.602;2023-01-30T12:52:35;100744.38;;;-4.57;50.52
49342;BME280;35210;41.606;-87.602;2023-01-30T12:55:20;100739.22;;;-4.60;50.58
49342;BME280;35210;41.606;-87.602;2023-01-30T12:57:54;100740.97;;;-4.56;51.20
49342;BME280;35210;41.606;-87.602;2023-01-30T13:00:44;100747.88;;;-4.49;51.50
49342;BME280;35210;41.606;-87.602;2023-01-30T13:03:26;100748.72;;;-4.53;48.54